sensor_id;sensor_type;location;lat;lon;timestamp;pressure;altitude;pressure_sealevel;temperature;humidity
51530;BME280;37613;51.788;21.582;2022-09-01T00:02:36;100546.95;;;12.22;68.20
51530;BME280;37613;51.788;21.582;2022-09-01T00:06:48;100549.73;;;12.19;69.12
51530;BME280;37613;51.788;21.582;2022-09-01T00:11:06;100549.27;;;12.14;69.87
51530;BME280;37613;51.788;21.582;2022-09-01T00:15:16;100549.27;;;12.07;69.68
51530;BME280;37613;51.788;21.582;2022-09-01T00:19:29;100550.77;;;12.04;68.90
51530;BME280;37613;51.788;21.582;2022-09-01T00:23:43;100551.25;;;12.02;69.21
51530;BME280;37613;51.788;21.582;2022-09-01T00:27:59;100553.15;;;11.97;69.02
51530;BME280;37613;51.788;21.582;2022-09-01T00:32:19;100552.92;;;11.93;68.87
51530;BME280;37613;51.788;21.582;2022-09-01T00:36:38;100553.15;;;11.86;69.47
51530;BME280;37613;51.788;21.582;2022-09-01T00:50:24;100556.13;;;11.69;69.26
51530;BME280;37613;51.788;21.582;2022-09-01T00:54:35;100555.56;;;11.65;69.22
51530;BME280;37613;51.788;21.582;2022-09-01T00:58:55;100553.35;;;11.61;69.23
51530;BME280;37613;51.788;21.582;2022-09-01T01:03:41;100554.52;;;11.57;69.25
51530;BME280;37613;51.788;21.582;2022-09-01T01:07:40;100554.52;;;11.51;69.24
51530;BME280;37613;51.788;21.582;2022-09-01T01:11:48;100554.58;;;11.42;69.28
51530;BME280;37613;51.788;21.582;2022-09-01T01:16:05;100552.98;;;11.34;69.18
51530;BME280;37613;51.788;21.582;2022-09-01T01:20:30;100554.14;;;11.21;69.09
51530;BME280;37613;51.788;21.582;2022-09-01T01:25:10;100553.94;;;11.08;69.17
51530;BME280;37613;51.788;21.582;2022-09-01T01:29:46;100558.65;;;10.97;69.26
51530;BME280;37613;51.788;21.582;2022-09-01T01:34:52;100554.55;;;10.83;69.35
51530;BME280;37613;51.788;21.582;2022-09-01T01:39:07;100555.45;;;10.72;69.41
51530;BME280;37613;51.788;21.582;2022-09-01T01:43:38;100552.95;;;10.61;69.42
51530;BME280;37613;51.788;21.582;2022-09-01T01:48:14;100545.71;;;10.53;69.59
51530;BME280;37613;51.788;21.582;2022-09-01T01:52:34;100543.05;;;10.43;69.44
51530;BME280;37613;51.788;21.582;2022-09-01T01:57:02;100538.24;;;10.33;69.53
51530;BME280;37613;51.788;21.582;2022-09-01T02:01:35;100533.51;;;10.22;69.57
51530;BME280;37613;51.788;21.582;2022-09-01T02:05:51;100535.48;;;10.12;69.51
51530;BME280;37613;51.788;21.582;2022-09-01T02:18:59;100531.48;;;9.87;69.76
51530;BME280;37613;51.788;21.582;2022-09-01T02:23:19;100538.38;;;9.79;69.81
51530;BME280;37613;51.788;21.582;2022-09-01T02:27:46;100539.71;;;9.69;69.81
51530;BME280;37613;51.788;21.582;2022-09-01T02:41:05;100544.86;;;9.44;70.15
51530;BME280;37613;51.788;21.582;2022-09-01T02:49:33;100549.30;;;9.33;70.30
51530;BME280;37613;51.788;21.582;2022-09-01T02:58:34;100548.56;;;9.22;70.49
51530;BME280;37613;51.788;21.582;2022-09-01T03:03:20;100549.61;;;9.16;70.50
51530;BME280;37613;51.788;21.582;2022-09-01T03:07:37;100545.69;;;9.11;70.52
51530;BME280;37613;51.788;21.582;2022-09-01T03:11:50;100545.86;;;9.05;70.79
51530;BME280;37613;51.788;21.582;2022-09-01T03:15:58;100544.07;;;9.01;70.82
51530;BME280;37613;51.788;21.582;2022-09-01T03:20:11;100546.40;;;8.96;70.93
51530;BME280;37613;51.788;21.582;2022-09-01T03:24:26;100546.80;;;8.90;70.94
51530;BME280;37613;51.788;21.582;2022-09-01T03:33:26;100544.48;;;8.81;70.91
51530;BME280;37613;51.788;21.582;2022-09-01T03:42:03;100551.20;;;8.71;70.97
51530;BME280;37613;51.788;21.582;2022-09-01T03:46:36;100547.34;;;8.64;71.02
51530;BME280;37613;51.788;21.582;2022-09-01T03:51:00;100547.36;;;8.61;71.26
51530;BME280;37613;51.788;21.582;2022-09-01T03:55:31;100547.30;;;8.56;71.28
51530;BME280;37613;51.788;21.582;2022-09-01T04:09:17;100545.67;;;8.53;71.52
51530;BME280;37613;51.788;21.582;2022-09-01T04:19:08;100553.34;;;8.67;71.55
51530;BME280;37613;51.788;21.582;2022-09-01T04:23:53;100550.16;;;9.34;72.75
51530;BME280;37613;51.788;21.582;2022-09-01T04:28:15;100557.56;;;11.58;74.64
51530;BME280;37613;51.788;21.582;2022-09-01T04:32:31;100548.05;;;13.75;74.24
51530;BME280;37613;51.788;21.582;2022-09-01T04:36:54;100548.76;;;15.68;73.27
51530;BME280;37613;51.788;21.582;2022-09-01T04:41:04;100550.13;;;17.15;72.31
51530;BME280;37613;51.788;21.582;2022-09-01T04:45:12;100552.79;;;18.62;71.44
51530;BME280;37613;51.788;21.582;2022-09-01T04:49:20;100561.40;;;19.81;67.93
51530;BME280;37613;51.788;21.582;2022-09-01T04:53:24;100566.59;;;20.34;66.70
51530;BME280;37613;51.788;21.582;2022-09-01T04:57:31;100568.28;;;21.04;62.79
51530;BME280;37613;51.788;21.582;2022-09-01T05:01:37;100564.16;;;21.55;63.13
51530;BME280;37613;51.788;21.582;2022-09-01T05:05:47;100560.96;;;22.61;64.10
51530;BME280;37613;51.788;21.582;2022-09-01T05:09:54;100564.40;;;23.52;61.49
51530;BME280;37613;51.788;21.582;2022-09-01T05:13:58;100567.64;;;24.11;60.02
51530;BME280;37613;51.788;21.582;2022-09-01T05:17:59;100569.95;;;24.44;59.57
51530;BME280;37613;51.788;21.582;2022-09-01T05:22:02;100572.70;;;25.22;58.83
51530;BME280;37613;51.788;21.582;2022-09-01T05:26:05;100572.48;;;25.93;57.35
51530;BME280;37613;51.788;21.582;2022-09-01T05:30:17;100566.25;;;26.58;55.72
51530;BME280;37613;51.788;21.582;2022-09-01T05:34:19;100568.20;;;26.95;52.66
51530;BME280;37613;51.788;21.582;2022-09-01T05:38:27;100564.06;;;26.75;50.08
51530;BME280;37613;51.788;21.582;2022-09-01T05:42:31;100559.63;;;26.69;49.26
51530;BME280;37613;51.788;21.582;2022-09-01T05:46:34;100559.27;;;27.04;48.76
51530;BME280;37613;51.788;21.582;2022-09-01T05:50:40;100557.39;;;27.06;44.39
51530;BME280;37613;51.788;21.582;2022-09-01T05:54:45;100553.22;;;27.29;46.93
51530;BME280;37613;51.788;21.582;2022-09-01T05:58:52;100560.29;;;27.35;46.70
51530;BME280;37613;51.788;21.582;2022-09-01T06:02:54;100560.33;;;26.79;43.54
51530;BME280;37613;51.788;21.582;2022-09-01T06:06:59;100559.02;;;25.10;44.93
51530;BME280;37613;51.788;21.582;2022-09-01T06:11:03;100563.19;;;23.31;44.92
51530;BME280;37613;51.788;21.582;2022-09-01T06:15:12;100562.69;;;21.47;45.41
51530;BME280;37613;51.788;21.582;2022-09-01T06:19:16;100565.55;;;20.34;46.47
51530;BME280;37613;51.788;21.582;2022-09-01T06:23:21;100564.61;;;19.18;47.84
51530;BME280;37613;51.788;21.582;2022-09-01T06:27:23;100563.95;;;18.44;48.90
51530;BME280;37613;51.788;21.582;2022-09-01T06:31:25;100562.36;;;18.31;48.94
51530;BME280;37613;51.788;21.582;2022-09-01T06:35:28;100561.34;;;18.25;49.52
51530;BME280;37613;51.788;21.582;2022-09-01T06:39:30;100562.38;;;18.22;49.93
51530;BME280;37613;51.788;21.582;2022-09-01T06:43:32;100570.61;;;18.43;50.40
51530;BME280;37613;51.788;21.582;2022-09-01T06:47:34;100571.67;;;18.61;50.78
51530;BME280;37613;51.788;21.582;2022-09-01T06:51:36;100573.81;;;18.68;50.86
51530;BME280;37613;51.788;21.582;2022-09-01T06:55:38;100573.41;;;18.53;51.73
51530;BME280;37613;51.788;21.582;2022-09-01T06:59:40;100574.23;;;18.54;51.67
51530;BME280;37613;51.788;21.582;2022-09-01T07:03:42;100576.44;;;18.61;51.78
51530;BME280;37613;51.788;21.582;2022-09-01T07:07:48;100581.23;;;18.56;51.76
51530;BME280;37613;51.788;21.582;2022-09-01T07:11:55;100582.39;;;18.73;52.13
51530;BME280;37613;51.788;21.582;2022-09-01T07:15:58;100584.48;;;18.70;52.09
51530;BME280;37613;51.788;21.582;2022-09-01T07:20:00;100578.17;;;18.60;52.09
51530;BME280;37613;51.788;21.582;2022-09-01T07:24:02;100582.27;;;18.54;52.46
51530;BME280;37613;51.788;21.582;2022-09-01T07:28:07;100580.42;;;18.54;52.28
51530;BME280;37613;51.788;21.582;2022-09-01T07:32:09;100584.66;;;18.42;52.28
51530;BME280;37613;51.788;21.582;2022-09-01T07:36:11;100588.02;;;18.38;52.26
51530;BME280;37613;51.788;21.582;2022-09-01T07:40:15;100590.38;;;18.28;52.07
51530;BME280;37613;51.788;21.582;2022-09-01T07:44:21;100584.09;;;18.27;52.30
51530;BME280;37613;51.788;21.582;2022-09-01T07:48:24;100588.27;;;18.26;51.95
51530;BME280;37613;51.788;21.582;2022-09-01T07:52:30;100586.84;;;18.13;51.51
51530;BME280;37613;51.788;21.582;2022-09-01T07:56:31;100592.18;;;17.97;51.85
51530;BME280;37613;51.788;21.582;2022-09-01T08:00:37;100593.79;;;17.80;51.47
51530;BME280;37613;51.788;21.582;2022-09-01T08:04:40;100589.83;;;17.75;51.68
51530;BME280;37613;51.788;21.582;2022-09-01T08:08:42;100589.92;;;17.95;52.21
51530;BME280;37613;51.788;21.582;2022-09-01T08:12:43;100592.32;;;18.11;51.93
51530;BME280;37613;51.788;21.582;2022-09-01T08:16:45;100588.69;;;18.13;51.66
51530;BME280;37613;51.788;21.582;2022-09-01T08:20:47;100587.73;;;18.22;51.09
51530;BME280;37613;51.788;21.582;2022-09-01T08:24:50;100592.70;;;18.12;50.78
51530;BME280;37613;51.788;21.582;2022-09-01T08:28:52;100588.93;;;17.96;51.58
51530;BME280;37613;51.788;21.582;2022-09-01T08:33:00;100588.16;;;18.01;51.98
51530;BME280;37613;51.788;21.582;2022-09-01T08:37:04;100586.91;;;18.10;51.85
51530;BME280;37613;51.788;21.582;2022-09-01T08:41:14;100581.36;;;18.21;52.07
51530;BME280;37613;51.788;21.582;2022-09-01T08:49:31;100585.41;;;18.53;51.86
51530;BME280;37613;51.788;21.582;2022-09-01T08:57:56;100578.81;;;18.76;51.29
51530;BME280;37613;51.788;21.582;2022-09-01T09:06:46;100571.01;;;18.86;51.51
51530;BME280;37613;51.788;21.582;2022-09-01T09:19:06;100568.15;;;19.44;49.63
51530;BME280;37613;51.788;21.582;2022-09-01T09:23:17;100566.34;;;19.46;48.83
51530;BME280;37613;51.788;21.582;2022-09-01T09:27:27;100565.79;;;19.61;49.46
51530;BME280;37613;51.788;21.582;2022-09-01T09:31:37;100565.52;;;19.82;49.63
51530;BME280;37613;51.788;21.582;2022-09-01T09:35:45;100567.77;;;19.75;49.27
51530;BME280;37613;51.788;21.582;2022-09-01T09:40:00;100572.26;;;19.41;49.01
51530;BME280;37613;51.788;21.582;2022-09-01T09:44:25;100564.09;;;19.30;49.09
51530;BME280;37613;51.788;21.582;2022-09-01T09:48:26;100565.50;;;19.57;49.17
51530;BME280;37613;51.788;21.582;2022-09-01T09:52:31;100563.70;;;19.75;47.66
51530;BME280;37613;51.788;21.582;2022-09-01T09:56:37;100560.58;;;19.98;48.53
51530;BME280;37613;51.788;21.582;2022-09-01T10:00:42;100561.85;;;20.27;47.53
51530;BME280;37613;51.788;21.582;2022-09-01T10:05:47;100560.13;;;20.31;46.48
51530;BME280;37613;51.788;21.582;2022-09-01T10:13:27;100554.33;;;20.29;46.78
51530;BME280;37613;51.788;21.582;2022-09-01T10:17:31;100552.50;;;20.41;46.99
51530;BME280;37613;51.788;21.582;2022-09-01T10:21:42;100556.81;;;20.46;46.47
51530;BME280;37613;51.788;21.582;2022-09-01T10:25:45;100554.08;;;20.50;46.13
51530;BME280;37613;51.788;21.582;2022-09-01T10:30:10;100551.44;;;20.34;45.58
51530;BME280;37613;51.788;21.582;2022-09-01T10:34:15;100552.77;;;20.02;45.64
51530;BME280;37613;51.788;21.582;2022-09-01T10:42:21;100551.52;;;19.43;46.47
51530;BME280;37613;51.788;21.582;2022-09-01T10:50:27;100547.04;;;19.37;47.77
51530;BME280;37613;51.788;21.582;2022-09-01T10:55:15;100540.73;;;19.76;47.76
51530;BME280;37613;51.788;21.582;2022-09-01T11:16:00;100529.55;;;20.63;46.29
51530;BME280;37613;51.788;21.582;2022-09-01T11:32:33;100531.73;;;20.63;45.50
51530;BME280;37613;51.788;21.582;2022-09-01T11:36:36;100533.16;;;20.38;45.76
51530;BME280;37613;51.788;21.582;2022-09-01T11:40:53;100540.06;;;20.17;45.72
51530;BME280;37613;51.788;21.582;2022-09-01T11:45:01;100530.80;;;20.32;45.47
51530;BME280;37613;51.788;21.582;2022-09-01T11:49:07;100528.16;;;20.41;45.67
51530;BME280;37613;51.788;21.582;2022-09-01T11:53:13;100537.55;;;20.32;45.47
51530;BME280;37613;51.788;21.582;2022-09-01T11:57:20;100535.86;;;19.82;45.54
51530;BME280;37613;51.788;21.582;2022-09-01T12:01:34;100535.52;;;19.50;46.35
51530;BME280;37613;51.788;21.582;2022-09-01T12:05:44;100532.23;;;19.36;47.04
51530;BME280;37613;51.788;21.582;2022-09-01T12:09:49;100529.57;;;19.56;46.84
51530;BME280;37613;51.788;21.582;2022-09-01T12:14:05;100525.94;;;19.81;47.08
51530;BME280;37613;51.788;21.582;2022-09-01T12:18:18;100522.73;;;20.00;44.78
51530;BME280;37613;51.788;21.582;2022-09-01T12:22:22;100517.12;;;20.10;45.68
51530;BME280;37613;51.788;21.582;2022-09-01T12:26:25;100510.89;;;20.39;46.32
51530;BME280;37613;51.788;21.582;2022-09-01T12:30:27;100507.72;;;20.72;45.86
51530;BME280;37613;51.788;21.582;2022-09-01T12:38:37;100505.30;;;20.70;45.57
51530;BME280;37613;51.788;21.582;2022-09-01T12:42:39;100503.91;;;20.55;45.09
51530;BME280;37613;51.788;21.582;2022-09-01T12:46:49;100501.84;;;20.52;45.85
51530;BME280;37613;51.788;21.582;2022-09-01T12:50:51;100497.80;;;20.44;45.53
51530;BME280;37613;51.788;21.582;2022-09-01T12:54:54;100495.65;;;20.36;45.99
51530;BME280;37613;51.788;21.582;2022-09-01T12:59:09;100494.11;;;20.42;46.10
51530;BME280;37613;51.788;21.582;2022-09-01T13:03:14;100494.63;;;20.48;45.48
51530;BME280;37613;51.788;21.582;2022-09-01T13:07:18;100495.73;;;20.50;45.05
51530;BME280;37613;51.788;21.582;2022-09-01T13:11:19;100495.39;;;20.49;44.50
51530;BME280;37613;51.788;21.582;2022-09-01T13:15:24;100495.29;;;20.29;44.12
51530;BME280;37613;51.788;21.582;2022-09-01T13:19:26;100493.66;;;20.18;44.69
51530;BME280;37613;51.788;21.582;2022-09-01T13:23:27;100492.52;;;20.14;44.89
51530;BME280;37613;51.788;21.582;2022-09-01T13:27:29;100493.15;;;20.10;43.20
51530;BME280;37613;51.788;21.582;2022-09-01T13:31:31;100500.05;;;19.93;43.98
51530;BME280;37613;51.788;21.582;2022-09-01T13:35:35;100499.03;;;19.85;44.29
51530;BME280;37613;51.788;21.582;2022-09-01T13:39:37;100500.67;;;19.82;44.33
51530;BME280;37613;51.788;21.582;2022-09-01T13:43:39;100492.23;;;19.77;44.10
51530;BME280;37613;51.788;21.582;2022-09-01T13:47:42;100488.59;;;19.76;43.76
51530;BME280;37613;51.788;21.582;2022-09-01T13:51:49;100489.08;;;19.75;43.59
51530;BME280;37613;51.788;21.582;2022-09-01T13:55:52;100490.08;;;19.70;43.41
51530;BME280;37613;51.788;21.582;2022-09-01T13:59:54;100495.27;;;19.45;43.65
51530;BME280;37613;51.788;21.582;2022-09-01T14:03:56;100495.41;;;19.12;44.04
51530;BME280;37613;51.788;21.582;2022-09-01T14:07:59;100495.20;;;18.92;44.38
51530;BME280;37613;51.788;21.582;2022-09-01T14:12:03;100493.39;;;18.89;44.53
51530;BME280;37613;51.788;21.582;2022-09-01T14:16:09;100495.54;;;19.00;44.20
51530;BME280;37613;51.788;21.582;2022-09-01T14:20:13;100493.85;;;19.16;43.69
51530;BME280;37613;51.788;21.582;2022-09-01T14:24:18;100490.02;;;19.24;42.87
51530;BME280;37613;51.788;21.582;2022-09-01T14:28:21;100487.17;;;19.35;43.00
51530;BME280;37613;51.788;21.582;2022-09-01T14:32:23;100486.58;;;19.49;43.42
51530;BME280;37613;51.788;21.582;2022-09-01T14:36:27;100483.89;;;19.53;42.82
51530;BME280;37613;51.788;21.582;2022-09-01T14:40:29;100486.33;;;19.62;43.25
51530;BME280;37613;51.788;21.582;2022-09-01T14:44:31;100488.89;;;19.67;43.35
51530;BME280;37613;51.788;21.582;2022-09-01T14:48:35;100490.48;;;19.67;43.24
51530;BME280;37613;51.788;21.582;2022-09-01T14:52:37;100490.05;;;19.64;43.19
51530;BME280;37613;51.788;21.582;2022-09-01T14:56:45;100489.48;;;19.62;43.34
51530;BME280;37613;51.788;21.582;2022-09-01T15:00:49;100486.52;;;19.62;43.22
51530;BME280;37613;51.788;21.582;2022-09-01T15:04:51;100484.14;;;19.58;41.99
51530;BME280;37613;51.788;21.582;2022-09-01T15:08:53;100484.67;;;19.56;42.51
51530;BME280;37613;51.788;21.582;2022-09-01T15:12:56;100485.27;;;19.59;42.28
51530;BME280;37613;51.788;21.582;2022-09-01T15:16:58;100488.48;;;19.58;42.35
51530;BME280;37613;51.788;21.582;2022-09-01T15:21:03;100488.71;;;19.55;41.77
51530;BME280;37613;51.788;21.582;2022-09-01T15:25:05;100489.96;;;19.48;41.99
51530;BME280;37613;51.788;21.582;2022-09-01T15:29:11;100491.35;;;19.50;42.30
51530;BME280;37613;51.788;21.582;2022-09-01T15:33:13;100489.74;;;19.47;41.92
51530;BME280;37613;51.788;21.582;2022-09-01T15:37:15;100483.52;;;19.41;41.21
51530;BME280;37613;51.788;21.582;2022-09-01T15:41:22;100479.63;;;19.33;41.60
51530;BME280;37613;51.788;21.582;2022-09-01T15:45:25;100480.31;;;19.24;42.07
51530;BME280;37613;51.788;21.582;2022-09-01T15:49:27;100481.45;;;19.11;42.16
51530;BME280;37613;51.788;21.582;2022-09-01T15:53:29;100480.70;;;18.98;42.47
51530;BME280;37613;51.788;21.582;2022-09-01T15:57:33;100480.55;;;18.89;42.63
51530;BME280;37613;51.788;21.582;2022-09-01T16:01:36;100483.10;;;18.90;42.97
51530;BME280;37613;51.788;21.582;2022-09-01T16:05:39;100480.45;;;18.80;43.09
51530;BME280;37613;51.788;21.582;2022-09-01T16:09:41;100480.63;;;18.59;43.23
51530;BME280;37613;51.788;21.582;2022-09-01T16:13:45;100480.88;;;18.39;43.39
51530;BME280;37613;51.788;21.582;2022-09-01T16:18:09;100481.59;;;18.27;43.71
51530;BME280;37613;51.788;21.582;2022-09-01T16:22:27;100485.35;;;18.12;43.96
51530;BME280;37613;51.788;21.582;2022-09-01T16:26:30;100486.17;;;18.02;44.25
51530;BME280;37613;51.788;21.582;2022-09-01T16:30:37;100486.36;;;17.92;44.30
51530;BME280;37613;51.788;21.582;2022-09-01T16:34:42;100483.42;;;17.82;44.46
51530;BME280;37613;51.788;21.582;2022-09-01T16:38:48;100484.74;;;17.70;44.92
51530;BME280;37613;51.788;21.582;2022-09-01T16:46:59;100492.00;;;17.44;45.35
51530;BME280;37613;51.788;21.582;2022-09-01T16:51:13;100494.52;;;17.32;45.59
51530;BME280;37613;51.788;21.582;2022-09-01T16:59:23;100499.47;;;17.04;45.98
51530;BME280;37613;51.788;21.582;2022-09-01T17:03:55;100505.15;;;16.88;46.23
51530;BME280;37613;51.788;21.582;2022-09-01T17:16:20;100514.55;;;16.31;47.45
51530;BME280;37613;51.788;21.582;2022-09-01T17:20:30;100523.45;;;16.07;47.75
51530;BME280;37613;51.788;21.582;2022-09-01T17:24:39;100525.26;;;15.80;48.13
51530;BME280;37613;51.788;21.582;2022-09-01T17:28:46;100532.96;;;15.55;48.65
51530;BME280;37613;51.788;21.582;2022-09-01T17:37:20;100535.44;;;15.10;49.27
51530;BME280;37613;51.788;21.582;2022-09-01T17:41:33;100539.52;;;14.89;49.41
51530;BME280;37613;51.788;21.582;2022-09-01T17:58:33;100555.02;;;14.06;50.81
51530;BME280;37613;51.788;21.582;2022-09-01T18:07:29;100562.74;;;13.73;51.68
51530;BME280;37613;51.788;21.582;2022-09-01T18:11:46;100572.75;;;13.62;52.09
51530;BME280;37613;51.788;21.582;2022-09-01T18:16:01;100579.73;;;13.53;52.29
51530;BME280;37613;51.788;21.582;2022-09-01T18:20:11;100580.89;;;13.43;52.39
51530;BME280;37613;51.788;21.582;2022-09-01T18:29:04;100591.29;;;13.27;53.16
51530;BME280;37613;51.788;21.582;2022-09-01T18:33:26;100594.89;;;13.17;53.42
51530;BME280;37613;51.788;21.582;2022-09-01T18:42:05;100594.58;;;12.96;53.89
51530;BME280;37613;51.788;21.582;2022-09-01T18:55:02;100597.77;;;12.64;54.68
51530;BME280;37613;51.788;21.582;2022-09-01T19:03:34;100605.89;;;12.49;55.06
51530;BME280;37613;51.788;21.582;2022-09-01T19:07:48;100607.95;;;12.40;55.22
51530;BME280;37613;51.788;21.582;2022-09-01T19:12:15;100612.40;;;12.31;55.53
51530;BME280;37613;51.788;21.582;2022-09-01T19:16:47;100614.15;;;12.22;55.66
51530;BME280;37613;51.788;21.582;2022-09-01T19:21:07;100616.14;;;12.13;56.07
51530;BME280;37613;51.788;21.582;2022-09-01T19:25:16;100618.42;;;12.05;56.39
51530;BME280;37613;51.788;21.582;2022-09-01T19:29:48;100618.27;;;11.99;56.53
51530;BME280;37613;51.788;21.582;2022-09-01T19:33:59;100624.60;;;11.94;56.79
51530;BME280;37613;51.788;21.582;2022-09-01T19:38:06;100625.55;;;11.90;56.86
51530;BME280;37613;51.788;21.582;2022-09-01T19:42:20;100628.63;;;11.85;57.13
51530;BME280;37613;51.788;21.582;2022-09-01T19:46:31;100629.88;;;11.78;57.25
51530;BME280;37613;51.788;21.582;2022-09-01T19:50:54;100635.79;;;11.71;57.40
51530;BME280;37613;51.788;21.582;2022-09-01T19:55:06;100635.69;;;11.61;57.54
51530;BME280;37613;51.788;21.582;2022-09-01T19:59:27;100641.84;;;11.54;57.76
51530;BME280;37613;51.788;21.582;2022-09-01T20:03:35;100647.83;;;11.46;57.98
51530;BME280;37613;51.788;21.582;2022-09-01T20:07:52;100652.40;;;11.40;58.25
51530;BME280;37613;51.788;21.582;2022-09-01T20:16:49;100659.02;;;11.35;58.43
51530;BME280;37613;51.788;21.582;2022-09-01T20:20:57;100657.59;;;11.33;58.77
51530;BME280;37613;51.788;21.582;2022-09-01T20:25:10;100662.98;;;11.34;58.96
51530;BME280;37613;51.788;21.582;2022-09-01T20:29:38;100661.88;;;11.36;58.97
51530;BME280;37613;51.788;21.582;2022-09-01T20:33:46;100663.23;;;11.39;59.67
51530;BME280;37613;51.788;21.582;2022-09-01T20:37:55;100669.66;;;11.44;59.31
51530;BME280;37613;51.788;21.582;2022-09-01T20:42:12;100671.02;;;11.49;59.26
51530;BME280;37613;51.788;21.582;2022-09-01T20:46:24;100677.54;;;11.52;59.87
51530;BME280;37613;51.788;21.582;2022-09-01T20:50:36;100682.69;;;11.57;60.26
51530;BME280;37613;51.788;21.582;2022-09-01T20:54:40;100684.77;;;11.60;59.65
51530;BME280;37613;51.788;21.582;2022-09-01T20:58:52;100687.70;;;11.64;59.73
51530;BME280;37613;51.788;21.582;2022-09-01T21:07:19;100689.55;;;11.69;59.69
51530;BME280;37613;51.788;21.582;2022-09-01T21:11:33;100691.05;;;11.69;60.06
51530;BME280;37613;51.788;21.582;2022-09-01T21:16:04;100693.48;;;11.66;59.74
51530;BME280;37613;51.788;21.582;2022-09-01T21:24:40;100696.31;;;11.58;59.90
51530;BME280;37613;51.788;21.582;2022-09-01T21:28:46;100699.00;;;11.54;59.97
51530;BME280;37613;51.788;21.582;2022-09-01T21:32:59;100698.73;;;11.49;60.18
51530;BME280;37613;51.788;21.582;2022-09-01T21:37:04;100703.85;;;11.40;60.31
51530;BME280;37613;51.788;21.582;2022-09-01T21:41:20;100707.67;;;11.30;60.52
51530;BME280;37613;51.788;21.582;2022-09-01T21:45:34;100713.15;;;11.17;60.42
51530;BME280;37613;51.788;21.582;2022-09-01T21:49:40;100714.34;;;11.04;60.49
51530;BME280;37613;51.788;21.582;2022-09-01T22:02:26;100718.30;;;10.60;60.81
51530;BME280;37613;51.788;21.582;2022-09-01T22:07:01;100715.90;;;10.46;60.81
51530;BME280;37613;51.788;21.582;2022-09-01T22:11:10;100707.61;;;10.29;60.87
51530;BME280;37613;51.788;21.582;2022-09-01T22:15:38;100710.27;;;10.12;61.05
51530;BME280;37613;51.788;21.582;2022-09-01T22:20:07;100707.55;;;9.93;61.14
51530;BME280;37613;51.788;21.582;2022-09-01T22:29:39;100714.83;;;9.59;61.88
51530;BME280;37613;51.788;21.582;2022-09-01T22:34:17;100713.83;;;9.55;62.01
51530;BME280;37613;51.788;21.582;2022-09-01T22:38:46;100720.73;;;9.52;62.15
51530;BME280;37613;51.788;21.582;2022-09-01T22:43:01;100721.55;;;9.48;62.28
51530;BME280;37613;51.788;21.582;2022-09-01T22:52:32;100725.20;;;9.42;62.62
51530;BME280;37613;51.788;21.582;2022-09-01T23:19:09;100714.31;;;9.35;63.38
51530;BME280;37613;51.788;21.582;2022-09-01T23:23:40;100717.30;;;9.35;63.66
51530;BME280;37613;51.788;21.582;2022-09-01T23:28:10;100720.77;;;9.35;63.89
51530;BME280;37613;51.788;21.582;2022-09-01T23:37:08;100722.07;;;9.39;63.94
51530;BME280;37613;51.788;21.582;2022-09-01T23:41:32;100725.79;;;9.40;64.04
51530;BME280;37613;51.788;21.582;2022-09-01T23:45:57;100726.47;;;9.42;64.22
51530;BME280;37613;51.788;21.582;2022-09-01T23:50:29;100726.00;;;9.43;64.42
51530;BME280;37613;51.788;21.582;2022-09-01T23:55:07;100725.06;;;9.43;64.45
51530;BME280;37613;51.788;21.582;2022-09-01T23:59:11;100726.38;;;9.42;64.38
